sensor_id;sensor_type;location;lat;lon;timestamp;P1;durP1;ratioP1;P2;durP2;ratioP2
39948;SDS011;29070;48.102;-1.652;2022-08-19T00:04:23;1.80;;;1.27;;
39948;SDS011;29070;48.102;-1.652;2022-08-19T00:09:26;2.55;;;1.10;;
39948;SDS011;29070;48.102;-1.652;2022-08-19T00:14:28;2.63;;;1.20;;
39948;SDS011;29070;48.102;-1.652;2022-08-19T00:19:31;3.10;;;1.33;;
39948;SDS011;29070;48.102;-1.652;2022-08-19T00:24:31;2.75;;;1.00;;
39948;SDS011;29070;48.102;-1.652;2022-08-19T00:29:32;4.40;;;1.33;;
39948;SDS011;29070;48.102;-1.652;2022-08-19T00:34:32;1.87;;;1.10;;
39948;SDS011;29070;48.102;-1.652;2022-08-19T00:39:33;3.67;;;1.03;;
39948;SDS011;29070;48.102;-1.652;2022-08-19T00:44:33;2.33;;;1.10;;
39948;SDS011;29070;48.102;-1.652;2022-08-19T00:49:35;1.97;;;1.17;;
39948;SDS011;29070;48.102;-1.652;2022-08-19T00:54:38;2.60;;;1.17;;
39948;SDS011;29070;48.102;-1.652;2022-08-19T00:59:40;2.28;;;1.10;;
39948;SDS011;29070;48.102;-1.652;2022-08-19T01:04:42;5.10;;;1.95;;
39948;SDS011;29070;48.102;-1.652;2022-08-19T01:09:43;3.03;;;1.27;;
39948;SDS011;29070;48.102;-1.652;2022-08-19T01:14:43;5.40;;;1.45;;
39948;SDS011;29070;48.102;-1.652;2022-08-19T01:19:45;5.32;;;1.27;;
39948;SDS011;29070;48.102;-1.652;2022-08-19T01:24:46;2.75;;;1.23;;
39948;SDS011;29070;48.102;-1.652;2022-08-19T01:29:47;4.00;;;1.40;;
39948;SDS011;29070;48.102;-1.652;2022-08-19T01:34:47;3.40;;;1.43;;
39948;SDS011;29070;48.102;-1.652;2022-08-19T01:39:48;4.27;;;1.37;;
39948;SDS011;29070;48.102;-1.652;2022-08-19T01:44:48;4.93;;;1.33;;
39948;SDS011;29070;48.102;-1.652;2022-08-19T01:49:48;2.77;;;1.60;;
39948;SDS011;29070;48.102;-1.652;2022-08-19T01:54:49;3.00;;;1.67;;
39948;SDS011;29070;48.102;-1.652;2022-08-19T01:59:49;2.70;;;1.53;;
39948;SDS011;29070;48.102;-1.652;2022-08-19T02:04:51;4.13;;;1.55;;
39948;SDS011;29070;48.102;-1.652;2022-08-19T02:09:51;2.63;;;1.50;;
39948;SDS011;29070;48.102;-1.652;2022-08-19T02:14:52;2.50;;;1.53;;
39948;SDS011;29070;48.102;-1.652;2022-08-19T02:19:52;4.57;;;1.70;;
39948;SDS011;29070;48.102;-1.652;2022-08-19T02:24:53;2.10;;;1.40;;
39948;SDS011;29070;48.102;-1.652;2022-08-19T02:29:54;5.00;;;1.88;;
39948;SDS011;29070;48.102;-1.652;2022-08-19T02:34:55;3.50;;;1.33;;
39948;SDS011;29070;48.102;-1.652;2022-08-19T02:39:55;4.70;;;2.07;;
39948;SDS011;29070;48.102;-1.652;2022-08-19T02:44:55;3.40;;;1.40;;
39948;SDS011;29070;48.102;-1.652;2022-08-19T02:49:56;3.27;;;1.53;;
39948;SDS011;29070;48.102;-1.652;2022-08-19T02:54:56;2.40;;;1.50;;
39948;SDS011;29070;48.102;-1.652;2022-08-19T02:59:57;2.85;;;1.15;;
39948;SDS011;29070;48.102;-1.652;2022-08-19T03:04:57;3.10;;;1.43;;
39948;SDS011;29070;48.102;-1.652;2022-08-19T03:09:58;10.77;;;1.70;;
39948;SDS011;29070;48.102;-1.652;2022-08-19T03:14:58;3.63;;;1.60;;
39948;SDS011;29070;48.102;-1.652;2022-08-19T03:19:59;2.45;;;1.23;;
39948;SDS011;29070;48.102;-1.652;2022-08-19T03:24:59;3.55;;;1.45;;
39948;SDS011;29070;48.102;-1.652;2022-08-19T03:30:00;1.53;;;1.17;;
39948;SDS011;29070;48.102;-1.652;2022-08-19T03:35:00;4.05;;;1.23;;
39948;SDS011;29070;48.102;-1.652;2022-08-19T03:40:02;2.35;;;1.00;;
39948;SDS011;29070;48.102;-1.652;2022-08-19T03:45:03;3.72;;;0.98;;
39948;SDS011;29070;48.102;-1.652;2022-08-19T03:50:04;2.42;;;1.20;;
39948;SDS011;29070;48.102;-1.652;2022-08-19T03:55:05;2.35;;;1.23;;
39948;SDS011;29070;48.102;-1.652;2022-08-19T04:00:07;1.42;;;0.88;;
39948;SDS011;29070;48.102;-1.652;2022-08-19T04:05:08;3.67;;;1.15;;
39948;SDS011;29070;48.102;-1.652;2022-08-19T04:10:09;3.92;;;1.33;;
39948;SDS011;29070;48.102;-1.652;2022-08-19T04:15:09;2.85;;;1.30;;
39948;SDS011;29070;48.102;-1.652;2022-08-19T04:20:10;2.10;;;1.00;;
39948;SDS011;29070;48.102;-1.652;2022-08-19T04:25:10;3.03;;;1.33;;
39948;SDS011;29070;48.102;-1.652;2022-08-19T04:30:11;3.13;;;1.52;;
39948;SDS011;29070;48.102;-1.652;2022-08-19T04:35:12;2.80;;;1.30;;
39948;SDS011;29070;48.102;-1.652;2022-08-19T04:40:13;2.53;;;1.17;;
39948;SDS011;29070;48.102;-1.652;2022-08-19T04:45:32;2.97;;;1.40;;
39948;SDS011;29070;48.102;-1.652;2022-08-19T04:50:32;3.33;;;1.70;;
39948;SDS011;29070;48.102;-1.652;2022-08-19T04:55:33;3.25;;;1.50;;
39948;SDS011;29070;48.102;-1.652;2022-08-19T05:00:37;3.65;;;2.00;;
39948;SDS011;29070;48.102;-1.652;2022-08-19T05:05:41;4.82;;;1.77;;
39948;SDS011;29070;48.102;-1.652;2022-08-19T05:10:42;4.90;;;1.90;;
39948;SDS011;29070;48.102;-1.652;2022-08-19T05:15:43;4.00;;;2.00;;
39948;SDS011;29070;48.102;-1.652;2022-08-19T05:20:44;3.85;;;1.80;;
39948;SDS011;29070;48.102;-1.652;2022-08-19T05:26:03;3.67;;;1.95;;
39948;SDS011;29070;48.102;-1.652;2022-08-19T05:31:04;4.65;;;1.70;;
39948;SDS011;29070;48.102;-1.652;2022-08-19T05:36:04;4.67;;;2.20;;
39948;SDS011;29070;48.102;-1.652;2022-08-19T05:41:08;3.67;;;1.80;;
39948;SDS011;29070;48.102;-1.652;2022-08-19T05:46:19;3.03;;;1.80;;
39948;SDS011;29070;48.102;-1.652;2022-08-19T05:51:20;2.50;;;1.80;;
39948;SDS011;29070;48.102;-1.652;2022-08-19T05:56:20;2.67;;;1.60;;
39948;SDS011;29070;48.102;-1.652;2022-08-19T06:01:20;3.40;;;1.80;;
39948;SDS011;29070;48.102;-1.652;2022-08-19T06:06:21;4.00;;;1.90;;
39948;SDS011;29070;48.102;-1.652;2022-08-19T06:11:31;2.97;;;1.88;;
39948;SDS011;29070;48.102;-1.652;2022-08-19T06:16:53;5.55;;;2.03;;
39948;SDS011;29070;48.102;-1.652;2022-08-19T06:21:53;3.15;;;1.90;;
39948;SDS011;29070;48.102;-1.652;2022-08-19T06:26:54;5.97;;;2.03;;
39948;SDS011;29070;48.102;-1.652;2022-08-19T06:31:57;4.13;;;2.03;;
39948;SDS011;29070;48.102;-1.652;2022-08-19T06:36:59;3.72;;;1.80;;
39948;SDS011;29070;48.102;-1.652;2022-08-19T06:42:04;4.15;;;2.10;;
39948;SDS011;29070;48.102;-1.652;2022-08-19T06:47:07;3.83;;;2.13;;
39948;SDS011;29070;48.102;-1.652;2022-08-19T06:52:10;7.63;;;2.25;;
39948;SDS011;29070;48.102;-1.652;2022-08-19T06:57:12;7.85;;;2.80;;
39948;SDS011;29070;48.102;-1.652;2022-08-19T07:02:14;3.28;;;1.88;;
39948;SDS011;29070;48.102;-1.652;2022-08-19T07:07:15;5.05;;;1.98;;
39948;SDS011;29070;48.102;-1.652;2022-08-19T07:12:15;4.10;;;2.30;;
39948;SDS011;29070;48.102;-1.652;2022-08-19T07:17:16;3.40;;;1.80;;
39948;SDS011;29070;48.102;-1.652;2022-08-19T07:22:16;6.33;;;2.50;;
39948;SDS011;29070;48.102;-1.652;2022-08-19T07:27:17;4.18;;;2.10;;
39948;SDS011;29070;48.102;-1.652;2022-08-19T07:32:18;7.47;;;2.47;;
39948;SDS011;29070;48.102;-1.652;2022-08-19T07:37:19;3.67;;;2.07;;
39948;SDS011;29070;48.102;-1.652;2022-08-19T07:42:19;7.83;;;2.37;;
39948;SDS011;29070;48.102;-1.652;2022-08-19T07:47:21;5.35;;;1.92;;
39948;SDS011;29070;48.102;-1.652;2022-08-19T07:52:21;4.05;;;1.83;;
39948;SDS011;29070;48.102;-1.652;2022-08-19T07:57:22;6.97;;;2.42;;
39948;SDS011;29070;48.102;-1.652;2022-08-19T08:02:22;7.17;;;2.30;;
39948;SDS011;29070;48.102;-1.652;2022-08-19T08:07:23;5.87;;;3.10;;
39948;SDS011;29070;48.102;-1.652;2022-08-19T08:12:42;5.78;;;2.63;;
39948;SDS011;29070;48.102;-1.652;2022-08-19T08:17:43;4.30;;;2.00;;
39948;SDS011;29070;48.102;-1.652;2022-08-19T08:22:44;4.60;;;1.80;;
39948;SDS011;29070;48.102;-1.652;2022-08-19T08:28:05;4.13;;;1.95;;
39948;SDS011;29070;48.102;-1.652;2022-08-19T08:33:07;5.75;;;1.95;;
39948;SDS011;29070;48.102;-1.652;2022-08-19T08:38:08;4.53;;;1.90;;
39948;SDS011;29070;48.102;-1.652;2022-08-19T08:43:19;6.90;;;2.73;;
39948;SDS011;29070;48.102;-1.652;2022-08-19T08:48:27;5.43;;;1.70;;
39948;SDS011;29070;48.102;-1.652;2022-08-19T08:53:31;5.75;;;3.60;;
39948;SDS011;29070;48.102;-1.652;2022-08-19T08:59:07;5.97;;;2.38;;
39948;SDS011;29070;48.102;-1.652;2022-08-19T09:04:03;4.82;;;1.80;;
39948;SDS011;29070;48.102;-1.652;2022-08-19T09:09:17;4.25;;;1.58;;
39948;SDS011;29070;48.102;-1.652;2022-08-19T09:19:51;4.63;;;1.58;;
39948;SDS011;29070;48.102;-1.652;2022-08-19T09:24:58;5.03;;;1.80;;
39948;SDS011;29070;48.102;-1.652;2022-08-19T09:29:58;4.18;;;1.80;;
39948;SDS011;29070;48.102;-1.652;2022-08-19T09:34:59;4.00;;;2.20;;
39948;SDS011;29070;48.102;-1.652;2022-08-19T09:40:00;5.22;;;1.77;;
39948;SDS011;29070;48.102;-1.652;2022-08-19T09:45:01;2.80;;;1.50;;
39948;SDS011;29070;48.102;-1.652;2022-08-19T09:50:03;6.60;;;1.48;;
39948;SDS011;29070;48.102;-1.652;2022-08-19T10:00:09;4.30;;;1.27;;
39948;SDS011;29070;48.102;-1.652;2022-08-19T10:05:10;3.42;;;1.20;;
39948;SDS011;29070;48.102;-1.652;2022-08-19T10:10:29;3.00;;;1.17;;
39948;SDS011;29070;48.102;-1.652;2022-08-19T10:15:29;4.27;;;1.43;;
39948;SDS011;29070;48.102;-1.652;2022-08-19T10:20:30;5.43;;;1.30;;
39948;SDS011;29070;48.102;-1.652;2022-08-19T10:25:31;2.00;;;1.08;;
39948;SDS011;29070;48.102;-1.652;2022-08-19T10:30:33;3.03;;;0.98;;
39948;SDS011;29070;48.102;-1.652;2022-08-19T10:35:35;2.63;;;1.05;;
39948;SDS011;29070;48.102;-1.652;2022-08-19T10:40:36;2.15;;;1.40;;
39948;SDS011;29070;48.102;-1.652;2022-08-19T10:45:37;4.13;;;1.50;;
39948;SDS011;29070;48.102;-1.652;2022-08-19T10:50:37;8.48;;;1.30;;
39948;SDS011;29070;48.102;-1.652;2022-08-19T10:56:07;2.00;;;0.80;;
39948;SDS011;29070;48.102;-1.652;2022-08-19T11:01:26;3.63;;;1.00;;
39948;SDS011;29070;48.102;-1.652;2022-08-19T11:06:27;3.63;;;0.73;;
39948;SDS011;29070;48.102;-1.652;2022-08-19T11:11:27;2.28;;;1.08;;
39948;SDS011;29070;48.102;-1.652;2022-08-19T11:16:28;3.25;;;1.20;;
39948;SDS011;29070;48.102;-1.652;2022-08-19T11:21:31;3.53;;;0.98;;
39948;SDS011;29070;48.102;-1.652;2022-08-19T11:26:35;2.58;;;1.00;;
39948;SDS011;29070;48.102;-1.652;2022-08-19T11:31:36;8.65;;;1.23;;
39948;SDS011;29070;48.102;-1.652;2022-08-19T11:36:40;2.50;;;0.80;;
39948;SDS011;29070;48.102;-1.652;2022-08-19T11:41:42;2.63;;;1.08;;
39948;SDS011;29070;48.102;-1.652;2022-08-19T11:46:43;1.88;;;0.90;;
39948;SDS011;29070;48.102;-1.652;2022-08-19T11:51:48;2.35;;;0.85;;
39948;SDS011;29070;48.102;-1.652;2022-08-19T11:56:50;3.97;;;0.80;;
39948;SDS011;29070;48.102;-1.652;2022-08-19T12:01:50;2.63;;;0.80;;
39948;SDS011;29070;48.102;-1.652;2022-08-19T12:06:50;3.27;;;0.90;;
39948;SDS011;29070;48.102;-1.652;2022-08-19T12:11:51;1.70;;;0.60;;
39948;SDS011;29070;48.102;-1.652;2022-08-19T12:16:51;3.30;;;0.80;;
39948;SDS011;29070;48.102;-1.652;2022-08-19T12:21:51;3.20;;;0.83;;
39948;SDS011;29070;48.102;-1.652;2022-08-19T12:26:55;1.60;;;1.25;;
39948;SDS011;29070;48.102;-1.652;2022-08-19T12:31:57;1.77;;;0.73;;
39948;SDS011;29070;48.102;-1.652;2022-08-19T12:37:01;2.45;;;0.82;;
39948;SDS011;29070;48.102;-1.652;2022-08-19T12:42:03;1.30;;;0.80;;
39948;SDS011;29070;48.102;-1.652;2022-08-19T12:47:03;1.35;;;0.65;;
39948;SDS011;29070;48.102;-1.652;2022-08-19T12:52:04;3.10;;;1.00;;
39948;SDS011;29070;48.102;-1.652;2022-08-19T12:57:06;3.35;;;1.30;;
39948;SDS011;29070;48.102;-1.652;2022-08-19T13:02:07;4.03;;;1.75;;
39948;SDS011;29070;48.102;-1.652;2022-08-19T13:07:11;2.65;;;0.80;;
39948;SDS011;29070;48.102;-1.652;2022-08-19T13:12:12;1.10;;;0.60;;
39948;SDS011;29070;48.102;-1.652;2022-08-19T13:17:12;1.38;;;0.90;;
39948;SDS011;29070;48.102;-1.652;2022-08-19T13:22:15;1.00;;;0.52;;
39948;SDS011;29070;48.102;-1.652;2022-08-19T13:27:16;3.13;;;0.80;;
39948;SDS011;29070;48.102;-1.652;2022-08-19T13:32:16;2.90;;;0.70;;
39948;SDS011;29070;48.102;-1.652;2022-08-19T13:37:35;1.20;;;0.68;;
39948;SDS011;29070;48.102;-1.652;2022-08-19T13:42:42;2.65;;;0.63;;
39948;SDS011;29070;48.102;-1.652;2022-08-19T13:47:45;1.80;;;0.95;;
39948;SDS011;29070;48.102;-1.652;2022-08-19T13:52:52;1.73;;;0.80;;
39948;SDS011;29070;48.102;-1.652;2022-08-19T13:57:55;3.38;;;0.60;;
39948;SDS011;29070;48.102;-1.652;2022-08-19T14:02:57;0.30;;;0.17;;
39948;SDS011;29070;48.102;-1.652;2022-08-19T14:07:58;0.20;;;0.10;;
39948;SDS011;29070;48.102;-1.652;2022-08-19T14:13:00;2.15;;;0.10;;
39948;SDS011;29070;48.102;-1.652;2022-08-19T14:18:03;0.00;;;0.00;;
39948;SDS011;29070;48.102;-1.652;2022-08-19T14:23:03;1.23;;;0.20;;
39948;SDS011;29070;48.102;-1.652;2022-08-19T14:28:05;1.83;;;0.30;;
39948;SDS011;29070;48.102;-1.652;2022-08-19T14:33:07;0.68;;;0.10;;
39948;SDS011;29070;48.102;-1.652;2022-08-19T14:38:14;0.57;;;0.10;;
39948;SDS011;29070;48.102;-1.652;2022-08-19T14:43:16;0.30;;;0.20;;
39948;SDS011;29070;48.102;-1.652;2022-08-19T14:48:17;0.43;;;0.10;;
39948;SDS011;29070;48.102;-1.652;2022-08-19T14:53:18;1.20;;;0.20;;
39948;SDS011;29070;48.102;-1.652;2022-08-19T14:58:18;1.13;;;0.10;;
39948;SDS011;29070;48.102;-1.652;2022-08-19T15:03:19;1.92;;;0.30;;
39948;SDS011;29070;48.102;-1.652;2022-08-19T15:08:19;0.73;;;0.30;;
39948;SDS011;29070;48.102;-1.652;2022-08-19T15:13:21;1.65;;;0.32;;
39948;SDS011;29070;48.102;-1.652;2022-08-19T15:18:24;1.25;;;0.40;;
39948;SDS011;29070;48.102;-1.652;2022-08-19T15:23:24;0.65;;;0.30;;
39948;SDS011;29070;48.102;-1.652;2022-08-19T15:28:26;1.35;;;0.40;;
39948;SDS011;29070;48.102;-1.652;2022-08-19T15:33:27;1.70;;;0.50;;
39948;SDS011;29070;48.102;-1.652;2022-08-19T15:38:27;1.37;;;0.50;;
39948;SDS011;29070;48.102;-1.652;2022-08-19T15:43:27;0.67;;;0.40;;
39948;SDS011;29070;48.102;-1.652;2022-08-19T15:48:28;3.25;;;0.70;;
39948;SDS011;29070;48.102;-1.652;2022-08-19T15:53:28;4.30;;;0.73;;
39948;SDS011;29070;48.102;-1.652;2022-08-19T15:58:29;4.17;;;0.77;;
39948;SDS011;29070;48.102;-1.652;2022-08-19T16:03:48;6.13;;;1.20;;
39948;SDS011;29070;48.102;-1.652;2022-08-19T16:09:07;4.70;;;1.00;;
39948;SDS011;29070;48.102;-1.652;2022-08-19T16:14:08;2.70;;;1.10;;
39948;SDS011;29070;48.102;-1.652;2022-08-19T16:19:08;4.90;;;1.20;;
39948;SDS011;29070;48.102;-1.652;2022-08-19T16:24:10;5.00;;;1.23;;
39948;SDS011;29070;48.102;-1.652;2022-08-19T16:29:13;5.30;;;2.00;;
39948;SDS011;29070;48.102;-1.652;2022-08-19T16:34:15;4.65;;;1.30;;
39948;SDS011;29070;48.102;-1.652;2022-08-19T16:39:15;3.95;;;0.85;;
39948;SDS011;29070;48.102;-1.652;2022-08-19T16:44:17;4.95;;;1.08;;
39948;SDS011;29070;48.102;-1.652;2022-08-19T16:49:20;3.58;;;0.82;;
39948;SDS011;29070;48.102;-1.652;2022-08-19T16:54:21;5.38;;;1.00;;
39948;SDS011;29070;48.102;-1.652;2022-08-19T16:59:22;5.80;;;1.30;;
39948;SDS011;29070;48.102;-1.652;2022-08-19T17:04:23;6.55;;;1.30;;
39948;SDS011;29070;48.102;-1.652;2022-08-19T17:09:24;5.57;;;1.40;;
39948;SDS011;29070;48.102;-1.652;2022-08-19T17:14:24;4.70;;;1.20;;
39948;SDS011;29070;48.102;-1.652;2022-08-19T17:19:25;16.17;;;1.80;;
39948;SDS011;29070;48.102;-1.652;2022-08-19T17:24:27;3.78;;;1.20;;
39948;SDS011;29070;48.102;-1.652;2022-08-19T17:29:27;8.43;;;1.60;;
39948;SDS011;29070;48.102;-1.652;2022-08-19T17:34:27;4.53;;;1.43;;
39948;SDS011;29070;48.102;-1.652;2022-08-19T17:39:28;5.20;;;1.43;;
39948;SDS011;29070;48.102;-1.652;2022-08-19T17:44:28;8.43;;;1.50;;
39948;SDS011;29070;48.102;-1.652;2022-08-19T17:49:29;6.88;;;1.38;;
39948;SDS011;29070;48.102;-1.652;2022-08-19T17:54:29;8.63;;;1.48;;
39948;SDS011;29070;48.102;-1.652;2022-08-19T17:59:30;7.93;;;1.50;;
39948;SDS011;29070;48.102;-1.652;2022-08-19T18:04:30;8.90;;;1.83;;
39948;SDS011;29070;48.102;-1.652;2022-08-19T18:09:32;10.03;;;1.47;;
39948;SDS011;29070;48.102;-1.652;2022-08-19T18:14:34;10.15;;;1.58;;
39948;SDS011;29070;48.102;-1.652;2022-08-19T18:19:39;6.95;;;1.45;;
39948;SDS011;29070;48.102;-1.652;2022-08-19T18:24:41;7.72;;;1.58;;
39948;SDS011;29070;48.102;-1.652;2022-08-19T18:29:41;5.25;;;1.45;;
39948;SDS011;29070;48.102;-1.652;2022-08-19T18:34:42;10.43;;;1.75;;
39948;SDS011;29070;48.102;-1.652;2022-08-19T18:39:44;5.85;;;1.77;;
39948;SDS011;29070;48.102;-1.652;2022-08-19T18:45:04;5.68;;;1.33;;
39948;SDS011;29070;48.102;-1.652;2022-08-19T18:50:24;7.63;;;1.38;;
39948;SDS011;29070;48.102;-1.652;2022-08-19T18:55:25;5.90;;;1.83;;
39948;SDS011;29070;48.102;-1.652;2022-08-19T19:00:28;9.63;;;1.60;;
39948;SDS011;29070;48.102;-1.652;2022-08-19T19:05:28;8.30;;;2.25;;
39948;SDS011;29070;48.102;-1.652;2022-08-19T19:10:28;7.23;;;2.33;;
39948;SDS011;29070;48.102;-1.652;2022-08-19T19:15:29;4.73;;;1.57;;
39948;SDS011;29070;48.102;-1.652;2022-08-19T19:20:29;6.00;;;1.50;;
39948;SDS011;29070;48.102;-1.652;2022-08-19T19:25:31;7.03;;;1.85;;
39948;SDS011;29070;48.102;-1.652;2022-08-19T19:30:33;5.70;;;1.52;;
39948;SDS011;29070;48.102;-1.652;2022-08-19T19:35:33;7.40;;;1.30;;
39948;SDS011;29070;48.102;-1.652;2022-08-19T19:40:34;6.10;;;1.60;;
39948;SDS011;29070;48.102;-1.652;2022-08-19T19:45:34;4.80;;;1.47;;
39948;SDS011;29070;48.102;-1.652;2022-08-19T19:50:36;12.20;;;1.70;;
39948;SDS011;29070;48.102;-1.652;2022-08-19T19:55:37;11.73;;;2.03;;
39948;SDS011;29070;48.102;-1.652;2022-08-19T20:00:40;4.40;;;1.52;;
39948;SDS011;29070;48.102;-1.652;2022-08-19T20:05:40;3.90;;;1.53;;
39948;SDS011;29070;48.102;-1.652;2022-08-19T20:10:41;7.40;;;1.87;;
39948;SDS011;29070;48.102;-1.652;2022-08-19T20:15:42;7.55;;;1.80;;
39948;SDS011;29070;48.102;-1.652;2022-08-19T20:20:43;7.22;;;1.90;;
39948;SDS011;29070;48.102;-1.652;2022-08-19T20:25:45;9.18;;;2.00;;
39948;SDS011;29070;48.102;-1.652;2022-08-19T20:30:45;5.23;;;1.83;;
39948;SDS011;29070;48.102;-1.652;2022-08-19T20:35:46;5.38;;;1.50;;
39948;SDS011;29070;48.102;-1.652;2022-08-19T20:40:46;6.53;;;1.30;;
39948;SDS011;29070;48.102;-1.652;2022-08-19T20:45:46;5.60;;;1.53;;
39948;SDS011;29070;48.102;-1.652;2022-08-19T20:50:47;6.07;;;1.30;;
39948;SDS011;29070;48.102;-1.652;2022-08-19T20:55:48;5.20;;;1.38;;
39948;SDS011;29070;48.102;-1.652;2022-08-19T21:00:49;5.30;;;1.50;;
39948;SDS011;29070;48.102;-1.652;2022-08-19T21:05:52;5.35;;;1.77;;
39948;SDS011;29070;48.102;-1.652;2022-08-19T21:10:53;8.32;;;1.90;;
39948;SDS011;29070;48.102;-1.652;2022-08-19T21:15:54;5.50;;;1.55;;
39948;SDS011;29070;48.102;-1.652;2022-08-19T21:20:55;4.33;;;1.60;;
39948;SDS011;29070;48.102;-1.652;2022-08-19T21:25:56;5.63;;;1.67;;
39948;SDS011;29070;48.102;-1.652;2022-08-19T21:30:58;4.93;;;1.50;;
39948;SDS011;29070;48.102;-1.652;2022-08-19T21:35:59;6.25;;;1.67;;
39948;SDS011;29070;48.102;-1.652;2022-08-19T21:41:00;4.10;;;1.80;;
39948;SDS011;29070;48.102;-1.652;2022-08-19T21:46:01;7.53;;;1.67;;
39948;SDS011;29070;48.102;-1.652;2022-08-19T21:51:02;5.28;;;1.63;;
39948;SDS011;29070;48.102;-1.652;2022-08-19T21:56:03;7.50;;;1.88;;
39948;SDS011;29070;48.102;-1.652;2022-08-19T22:01:05;7.38;;;1.70;;
39948;SDS011;29070;48.102;-1.652;2022-08-19T22:06:06;4.55;;;1.50;;
39948;SDS011;29070;48.102;-1.652;2022-08-19T22:11:08;3.90;;;1.90;;
39948;SDS011;29070;48.102;-1.652;2022-08-19T22:16:08;6.23;;;1.77;;
39948;SDS011;29070;48.102;-1.652;2022-08-19T22:21:09;7.15;;;1.70;;
39948;SDS011;29070;48.102;-1.652;2022-08-19T22:26:10;5.43;;;1.80;;
39948;SDS011;29070;48.102;-1.652;2022-08-19T22:31:11;4.93;;;1.80;;
39948;SDS011;29070;48.102;-1.652;2022-08-19T22:36:12;6.93;;;1.98;;
39948;SDS011;29070;48.102;-1.652;2022-08-19T22:41:13;6.82;;;1.65;;
39948;SDS011;29070;48.102;-1.652;2022-08-19T22:46:14;5.75;;;1.95;;
39948;SDS011;29070;48.102;-1.652;2022-08-19T22:51:15;8.27;;;2.07;;
39948;SDS011;29070;48.102;-1.652;2022-08-19T22:56:38;5.22;;;1.65;;
39948;SDS011;29070;48.102;-1.652;2022-08-19T23:01:38;4.40;;;1.57;;
39948;SDS011;29070;48.102;-1.652;2022-08-19T23:06:40;4.82;;;1.80;;
39948;SDS011;29070;48.102;-1.652;2022-08-19T23:11:41;5.30;;;1.90;;
39948;SDS011;29070;48.102;-1.652;2022-08-19T23:16:41;9.37;;;1.70;;
39948;SDS011;29070;48.102;-1.652;2022-08-19T23:21:41;8.93;;;2.20;;
39948;SDS011;29070;48.102;-1.652;2022-08-19T23:26:42;6.05;;;1.60;;
39948;SDS011;29070;48.102;-1.652;2022-08-19T23:32:02;8.65;;;2.10;;
39948;SDS011;29070;48.102;-1.652;2022-08-19T23:37:05;8.82;;;2.13;;
39948;SDS011;29070;48.102;-1.652;2022-08-19T23:42:09;4.80;;;1.90;;
39948;SDS011;29070;48.102;-1.652;2022-08-19T23:47:10;9.25;;;2.05;;
39948;SDS011;29070;48.102;-1.652;2022-08-19T23:52:11;7.45;;;2.20;;
39948;SDS011;29070;48.102;-1.652;2022-08-19T23:57:11;9.17;;;2.30;;
